LFOP METAR and TAF | Updated Today

LFOP METAR

Rouen Airport

Observation time: 13 min. ago

LFOP 051930Z AUTO 35007KT CAVOK 04/00 Q1043 NOSIG

Need help? Read our tutorial on how to read METARs or read the parsed version below.

Rouen Airport (LFOP) METAR

  • Weather conditions on Sun, 05 Feb 2023 19:30:00 +0000 (13 min. ago):
  • Present conditions: Dry
  • Clouds: Clear skies
  • Visibility: Greater than 10 km
  • Wind: 350 degrees at 7 knots
  • Temperature: 4 celsius
  • Dew point: 0 celsius
  • Pressure: 1043 millibars
  • Remarks: None


Useful to know...

LFOP TAF

Rouen Airport

TAF LFOP 051700Z 0518/0618 36015KT 9999 SCT020 BECMG 0606/0609 06005KT PROB30 0606/0611 3000 BR OVC002
Observation time: 2:43 hr. ago
Need help? Read our tutorial on how to read TAFs or read the parsed version below.

Parsed version of TAF for Rouen Airport (LFOP)

  • From 05 February at 18:00 UTC, to day 06 of the month at 18:00 UTC
  • Clouds: Scattered at 610 meters
  • Visibility: Greater than 10 km
  • Wind: 360 degrees at 15
  • Expected to arise soon, from 06 February at 06:00 UTC, to day 06 of the month at 09:00 UTC
  • Wind: 60 degrees at 5
  • From 06 February at 06:00 UTC, to day 06 of the month at 11:00 UTC
    Probability of 30%
  • Clouds: Overcast sky at 61 meters
  • Visibility: 3000 meters
  • Other: Mist